TZDO2: Arkansas Rv at SH 344 nr Tulsa, OK

                                SHEF ID:       TZDO2     Arkansas Rv at SH 344 nr Tulsa, OK
STATION TYPE:

STAGE RIV-FLOW BAT-LOAD
ft cfs volt
Ccp-Rev Ccp-Rev Ccp-Rev
(America/Chicago)
02/07 00:00 9.40 3240 12.74
02/07 01:00 9.46 3394 12.71
02/07 02:00 9.37 3161 12.70
02/07 03:00 9.20 2720 12.67
02/07 04:00 8.99 2201 12.66
02/07 05:00 8.79 1772 12.63
02/07 06:00 8.60 1415 12.61
02/07 07:00 8.44 1147 12.60
02/07 08:00 8.33 982 12.60
02/07 09:00 8.54 1311 12.69
02/07 10:00 9.14 2564 12.77
02/07 11:00 9.61 3786 13.64
02/07 12:00 9.97 4727 13.48
02/07 13:00 9.97 4727 13.36
02/07 14:00 9.82 4331 13.19
02/07 15:00 9.60 3760 13.13
02/07 16:00 9.30 2980 13.08
02/07 17:00 9.08 2415 13.05
02/07 18:00 8.88 1957 12.94
02/07 19:00 8.66 1524 12.86
02/07 20:00 8.49 1228 12.83
02/07 21:00 8.36 1025 12.80
02/07 22:00 8.53 1294 12.77
02/07 23:00 ---- ---- ----
Data processed at Sun 08Feb2026 05:51 GMT

NOTICE: If you are parsing this page

Please convert to using our Data API. Starting early 2026 we will be migrating to: https://water.usace.army.mil with modern pages rendered in JavaScript. When this migration completes you will no longer be able to scrape this page! CWMSDataAPI (CDA)

Timeseries IDs (TSIDs)

TSIDs used from left to right in the data table
GILC.Stage.Inst.1Hour.0.Ccp-Rev
GILC.Flow.Inst.1Hour.0.Ccp-Rev
GILC.Volt-Battery Load.Inst.1Hour.0.Ccp-Rev

                            

All information presented herein is the property of the government of the United States of America and may be revised or deleted at any time without prior notice. Dissemination of this information without the expressed written consent of the Public Affairs Office, Tulsa District U.S. Army Corps of Engineers is strictly prohibited. These data are gathered electronically and, as presented, have NOT undergone any form of quality control. These data are NOT guaranteed to be valid or correct.